sensor_id;sensor_type;location;lat;lon;timestamp;P1;durP1;ratioP1;P2;durP2;ratioP2
5585;SDS011;2815;54.094;12.112;2023-06-04T00:01:27;3.35;;;1.17;;
5585;SDS011;2815;54.094;12.112;2023-06-04T00:03:55;1.80;;;1.17;;
5585;SDS011;2815;54.094;12.112;2023-06-04T00:06:24;1.48;;;1.00;;
5585;SDS011;2815;54.094;12.112;2023-06-04T00:08:52;3.15;;;0.95;;
5585;SDS011;2815;54.094;12.112;2023-06-04T00:11:20;2.95;;;1.00;;
5585;SDS011;2815;54.094;12.112;2023-06-04T00:13:49;2.00;;;1.08;;
5585;SDS011;2815;54.094;12.112;2023-06-04T00:16:17;2.65;;;1.10;;
5585;SDS011;2815;54.094;12.112;2023-06-04T00:18:45;1.85;;;1.00;;
5585;SDS011;2815;54.094;12.112;2023-06-04T00:21:12;2.50;;;1.10;;
5585;SDS011;2815;54.094;12.112;2023-06-04T00:23:42;3.63;;;1.83;;
5585;SDS011;2815;54.094;12.112;2023-06-04T00:26:10;4.13;;;1.15;;
5585;SDS011;2815;54.094;12.112;2023-06-04T00:28:41;1.05;;;0.90;;
5585;SDS011;2815;54.094;12.112;2023-06-04T00:31:09;1.27;;;1.00;;
5585;SDS011;2815;54.094;12.112;2023-06-04T00:33:39;1.75;;;1.05;;
5585;SDS011;2815;54.094;12.112;2023-06-04T00:36:07;3.70;;;1.10;;
5585;SDS011;2815;54.094;12.112;2023-06-04T00:38:35;2.70;;;1.20;;
5585;SDS011;2815;54.094;12.112;2023-06-04T00:41:05;5.10;;;1.00;;
5585;SDS011;2815;54.094;12.112;2023-06-04T00:43:33;1.58;;;0.98;;
5585;SDS011;2815;54.094;12.112;2023-06-04T00:46:02;2.63;;;1.10;;
5585;SDS011;2815;54.094;12.112;2023-06-04T00:48:30;2.25;;;0.93;;
5585;SDS011;2815;54.094;12.112;2023-06-04T00:50:59;1.70;;;0.90;;
5585;SDS011;2815;54.094;12.112;2023-06-04T00:53:27;1.58;;;1.00;;
5585;SDS011;2815;54.094;12.112;2023-06-04T00:55:55;3.75;;;1.00;;
5585;SDS011;2815;54.094;12.112;2023-06-04T00:58:25;1.95;;;0.77;;
5585;SDS011;2815;54.094;12.112;2023-06-04T01:00:53;1.58;;;0.70;;
5585;SDS011;2815;54.094;12.112;2023-06-04T01:03:25;2.75;;;1.00;;
5585;SDS011;2815;54.094;12.112;2023-06-04T01:05:57;2.22;;;1.10;;
5585;SDS011;2815;54.094;12.112;2023-06-04T01:08:28;1.73;;;1.00;;
5585;SDS011;2815;54.094;12.112;2023-06-04T01:10:57;1.17;;;0.90;;
5585;SDS011;2815;54.094;12.112;2023-06-04T01:13:28;1.52;;;1.10;;
5585;SDS011;2815;54.094;12.112;2023-06-04T01:19:22;3.63;;;0.82;;
5585;SDS011;2815;54.094;12.112;2023-06-04T01:22:04;1.65;;;1.10;;
5585;SDS011;2815;54.094;12.112;2023-06-04T01:24:37;1.63;;;1.00;;
5585;SDS011;2815;54.094;12.112;2023-06-04T01:27:08;1.40;;;0.90;;
5585;SDS011;2815;54.094;12.112;2023-06-04T01:29:38;1.42;;;0.90;;
5585;SDS011;2815;54.094;12.112;2023-06-04T01:32:06;5.93;;;1.00;;
5585;SDS011;2815;54.094;12.112;2023-06-04T01:34:42;3.10;;;1.00;;
5585;SDS011;2815;54.094;12.112;2023-06-04T01:37:11;1.60;;;1.08;;
5585;SDS011;2815;54.094;12.112;2023-06-04T01:39:39;1.42;;;1.00;;
5585;SDS011;2815;54.094;12.112;2023-06-04T01:42:08;1.80;;;0.98;;
5585;SDS011;2815;54.094;12.112;2023-06-04T01:44:37;2.80;;;1.45;;
5585;SDS011;2815;54.094;12.112;2023-06-04T01:47:05;3.05;;;1.08;;
5585;SDS011;2815;54.094;12.112;2023-06-04T01:49:34;2.75;;;1.30;;
5585;SDS011;2815;54.094;12.112;2023-06-04T01:52:04;1.35;;;1.00;;
5585;SDS011;2815;54.094;12.112;2023-06-04T01:54:33;1.85;;;1.10;;
5585;SDS011;2815;54.094;12.112;2023-06-04T01:57:01;2.13;;;0.90;;
5585;SDS011;2815;54.094;12.112;2023-06-04T01:59:29;1.35;;;1.00;;
5585;SDS011;2815;54.094;12.112;2023-06-04T02:01:59;1.52;;;1.10;;
5585;SDS011;2815;54.094;12.112;2023-06-04T02:04:29;2.20;;;1.20;;
5585;SDS011;2815;54.094;12.112;2023-06-04T02:06:56;2.65;;;1.10;;
5585;SDS011;2815;54.094;12.112;2023-06-04T02:09:26;2.67;;;0.90;;
5585;SDS011;2815;54.094;12.112;2023-06-04T02:11:54;3.70;;;0.93;;
5585;SDS011;2815;54.094;12.112;2023-06-04T02:14:22;1.80;;;1.10;;
5585;SDS011;2815;54.094;12.112;2023-06-04T02:16:50;3.00;;;1.00;;
5585;SDS011;2815;54.094;12.112;2023-06-04T02:19:19;5.20;;;1.00;;
5585;SDS011;2815;54.094;12.112;2023-06-04T02:21:47;2.03;;;1.33;;
5585;SDS011;2815;54.094;12.112;2023-06-04T02:24:15;2.38;;;1.10;;
5585;SDS011;2815;54.094;12.112;2023-06-04T02:26:42;2.58;;;1.25;;
5585;SDS011;2815;54.094;12.112;2023-06-04T02:29:10;1.95;;;1.17;;
5585;SDS011;2815;54.094;12.112;2023-06-04T02:31:38;2.80;;;1.05;;
5585;SDS011;2815;54.094;12.112;2023-06-04T02:34:06;2.65;;;1.55;;
5585;SDS011;2815;54.094;12.112;2023-06-04T02:36:35;1.38;;;1.00;;
5585;SDS011;2815;54.094;12.112;2023-06-04T02:39:03;1.52;;;1.00;;
5585;SDS011;2815;54.094;12.112;2023-06-04T02:41:32;2.42;;;1.25;;
5585;SDS011;2815;54.094;12.112;2023-06-04T02:44:00;1.92;;;1.02;;
5585;SDS011;2815;54.094;12.112;2023-06-04T02:46:28;1.98;;;1.05;;
5585;SDS011;2815;54.094;12.112;2023-06-04T02:48:56;2.17;;;1.15;;
5585;SDS011;2815;54.094;12.112;2023-06-04T02:51:24;2.13;;;1.15;;
5585;SDS011;2815;54.094;12.112;2023-06-04T02:53:53;2.08;;;1.25;;
5585;SDS011;2815;54.094;12.112;2023-06-04T02:56:21;1.70;;;1.20;;
5585;SDS011;2815;54.094;12.112;2023-06-04T02:58:49;4.00;;;1.52;;
5585;SDS011;2815;54.094;12.112;2023-06-04T03:01:18;3.60;;;1.20;;
5585;SDS011;2815;54.094;12.112;2023-06-04T03:03:47;2.00;;;1.20;;
5585;SDS011;2815;54.094;12.112;2023-06-04T03:06:15;2.03;;;1.38;;
5585;SDS011;2815;54.094;12.112;2023-06-04T03:08:45;2.30;;;1.20;;
5585;SDS011;2815;54.094;12.112;2023-06-04T03:11:15;2.50;;;1.23;;
5585;SDS011;2815;54.094;12.112;2023-06-04T03:13:43;2.58;;;1.30;;
5585;SDS011;2815;54.094;12.112;2023-06-04T03:16:11;1.75;;;1.20;;
5585;SDS011;2815;54.094;12.112;2023-06-04T03:18:40;1.63;;;1.05;;
5585;SDS011;2815;54.094;12.112;2023-06-04T03:21:09;2.50;;;1.40;;
5585;SDS011;2815;54.094;12.112;2023-06-04T03:23:41;2.13;;;1.40;;
5585;SDS011;2815;54.094;12.112;2023-06-04T03:26:10;2.78;;;1.20;;
5585;SDS011;2815;54.094;12.112;2023-06-04T03:28:40;1.90;;;1.50;;
5585;SDS011;2815;54.094;12.112;2023-06-04T03:31:12;2.85;;;1.20;;
5585;SDS011;2815;54.094;12.112;2023-06-04T03:33:40;2.67;;;1.15;;
5585;SDS011;2815;54.094;12.112;2023-06-04T03:36:08;2.95;;;1.35;;
5585;SDS011;2815;54.094;12.112;2023-06-04T03:38:35;6.43;;;1.30;;
5585;SDS011;2815;54.094;12.112;2023-06-04T03:41:04;2.20;;;1.45;;
5585;SDS011;2815;54.094;12.112;2023-06-04T03:43:32;4.53;;;1.65;;
5585;SDS011;2815;54.094;12.112;2023-06-04T03:46:05;3.35;;;1.88;;
5585;SDS011;2815;54.094;12.112;2023-06-04T03:48:33;4.20;;;1.58;;
5585;SDS011;2815;54.094;12.112;2023-06-04T03:51:02;3.25;;;1.50;;
5585;SDS011;2815;54.094;12.112;2023-06-04T03:53:31;2.33;;;1.60;;
5585;SDS011;2815;54.094;12.112;2023-06-04T03:56:00;2.00;;;1.30;;
5585;SDS011;2815;54.094;12.112;2023-06-04T03:58:29;2.17;;;1.40;;
5585;SDS011;2815;54.094;12.112;2023-06-04T04:00:57;4.85;;;1.60;;
5585;SDS011;2815;54.094;12.112;2023-06-04T04:03:26;5.25;;;1.45;;
5585;SDS011;2815;54.094;12.112;2023-06-04T04:05:59;2.65;;;1.50;;
5585;SDS011;2815;54.094;12.112;2023-06-04T04:08:27;2.15;;;1.25;;
5585;SDS011;2815;54.094;12.112;2023-06-04T04:10:58;3.42;;;1.52;;
5585;SDS011;2815;54.094;12.112;2023-06-04T04:13:26;3.15;;;1.70;;
5585;SDS011;2815;54.094;12.112;2023-06-04T04:15:54;2.88;;;1.75;;
5585;SDS011;2815;54.094;12.112;2023-06-04T04:18:22;4.47;;;1.88;;
5585;SDS011;2815;54.094;12.112;2023-06-04T04:20:52;3.10;;;1.70;;
5585;SDS011;2815;54.094;12.112;2023-06-04T04:23:20;2.95;;;1.50;;
5585;SDS011;2815;54.094;12.112;2023-06-04T04:25:48;3.90;;;1.88;;
5585;SDS011;2815;54.094;12.112;2023-06-04T04:28:16;4.30;;;1.80;;
5585;SDS011;2815;54.094;12.112;2023-06-04T04:30:46;2.50;;;1.50;;
5585;SDS011;2815;54.094;12.112;2023-06-04T04:33:15;5.88;;;1.77;;
5585;SDS011;2815;54.094;12.112;2023-06-04T04:35:45;2.92;;;1.60;;
5585;SDS011;2815;54.094;12.112;2023-06-04T04:38:19;4.60;;;1.50;;
5585;SDS011;2815;54.094;12.112;2023-06-04T04:40:56;3.70;;;1.63;;
5585;SDS011;2815;54.094;12.112;2023-06-04T04:43:29;3.65;;;1.60;;
5585;SDS011;2815;54.094;12.112;2023-06-04T04:46:02;2.42;;;1.50;;
5585;SDS011;2815;54.094;12.112;2023-06-04T04:48:30;4.43;;;1.75;;
5585;SDS011;2815;54.094;12.112;2023-06-04T04:50:58;3.42;;;1.63;;
5585;SDS011;2815;54.094;12.112;2023-06-04T04:53:28;2.33;;;1.55;;
5585;SDS011;2815;54.094;12.112;2023-06-04T04:55:58;4.35;;;2.25;;
5585;SDS011;2815;54.094;12.112;2023-06-04T04:58:26;6.03;;;2.70;;
5585;SDS011;2815;54.094;12.112;2023-06-04T05:00:55;4.55;;;2.20;;
5585;SDS011;2815;54.094;12.112;2023-06-04T05:03:23;2.67;;;1.55;;
5585;SDS011;2815;54.094;12.112;2023-06-04T05:05:51;4.07;;;2.05;;
5585;SDS011;2815;54.094;12.112;2023-06-04T05:08:19;7.28;;;1.83;;
5585;SDS011;2815;54.094;12.112;2023-06-04T05:10:48;3.53;;;1.60;;
5585;SDS011;2815;54.094;12.112;2023-06-04T05:13:16;4.65;;;1.60;;
5585;SDS011;2815;54.094;12.112;2023-06-04T05:15:51;3.53;;;1.90;;
5585;SDS011;2815;54.094;12.112;2023-06-04T05:18:23;2.40;;;1.40;;
5585;SDS011;2815;54.094;12.112;2023-06-04T05:20:58;1.73;;;1.20;;
5585;SDS011;2815;54.094;12.112;2023-06-04T05:23:28;1.55;;;0.85;;
5585;SDS011;2815;54.094;12.112;2023-06-04T05:25:58;1.30;;;0.88;;
5585;SDS011;2815;54.094;12.112;2023-06-04T05:28:26;2.05;;;0.82;;
5585;SDS011;2815;54.094;12.112;2023-06-04T05:30:54;1.45;;;0.80;;
5585;SDS011;2815;54.094;12.112;2023-06-04T05:33:30;1.50;;;0.82;;
5585;SDS011;2815;54.094;12.112;2023-06-04T05:36:02;2.05;;;1.00;;
5585;SDS011;2815;54.094;12.112;2023-06-04T05:38:37;1.90;;;1.00;;
5585;SDS011;2815;54.094;12.112;2023-06-04T05:41:10;1.77;;;0.90;;
5585;SDS011;2815;54.094;12.112;2023-06-04T05:43:39;3.33;;;1.20;;
5585;SDS011;2815;54.094;12.112;2023-06-04T05:48:42;1.38;;;1.10;;
5585;SDS011;2815;54.094;12.112;2023-06-04T05:51:10;1.90;;;1.00;;
5585;SDS011;2815;54.094;12.112;2023-06-04T05:53:39;1.50;;;0.80;;
5585;SDS011;2815;54.094;12.112;2023-06-04T05:56:07;3.53;;;1.13;;
5585;SDS011;2815;54.094;12.112;2023-06-04T05:58:36;3.15;;;0.93;;
5585;SDS011;2815;54.094;12.112;2023-06-04T06:01:06;3.55;;;0.88;;
5585;SDS011;2815;54.094;12.112;2023-06-04T06:03:35;3.00;;;0.98;;
5585;SDS011;2815;54.094;12.112;2023-06-04T06:06:04;1.90;;;0.80;;
5585;SDS011;2815;54.094;12.112;2023-06-04T06:08:32;1.98;;;0.90;;
5585;SDS011;2815;54.094;12.112;2023-06-04T06:11:00;3.83;;;1.00;;
5585;SDS011;2815;54.094;12.112;2023-06-04T06:13:28;2.22;;;0.98;;
5585;SDS011;2815;54.094;12.112;2023-06-04T06:15:58;3.40;;;1.00;;
5585;SDS011;2815;54.094;12.112;2023-06-04T06:18:26;2.67;;;1.08;;
5585;SDS011;2815;54.094;12.112;2023-06-04T06:20:54;2.15;;;1.00;;
5585;SDS011;2815;54.094;12.112;2023-06-04T06:23:22;2.47;;;1.10;;
5585;SDS011;2815;54.094;12.112;2023-06-04T06:25:51;4.15;;;1.23;;
5585;SDS011;2815;54.094;12.112;2023-06-04T06:28:23;2.13;;;1.00;;
5585;SDS011;2815;54.094;12.112;2023-06-04T06:30:51;2.92;;;1.30;;
5585;SDS011;2815;54.094;12.112;2023-06-04T06:33:20;1.70;;;0.90;;
5585;SDS011;2815;54.094;12.112;2023-06-04T06:35:50;3.10;;;1.00;;
5585;SDS011;2815;54.094;12.112;2023-06-04T06:38:18;2.40;;;1.17;;
5585;SDS011;2815;54.094;12.112;2023-06-04T06:40:45;2.25;;;1.00;;
5585;SDS011;2815;54.094;12.112;2023-06-04T06:43:14;2.47;;;1.20;;
5585;SDS011;2815;54.094;12.112;2023-06-04T06:45:41;2.63;;;0.95;;
5585;SDS011;2815;54.094;12.112;2023-06-04T06:48:09;4.95;;;1.13;;
5585;SDS011;2815;54.094;12.112;2023-06-04T06:50:39;3.13;;;1.10;;
5585;SDS011;2815;54.094;12.112;2023-06-04T06:53:07;2.28;;;1.00;;
5585;SDS011;2815;54.094;12.112;2023-06-04T06:55:34;2.22;;;1.13;;
5585;SDS011;2815;54.094;12.112;2023-06-04T06:58:02;3.42;;;0.98;;
5585;SDS011;2815;54.094;12.112;2023-06-04T07:00:30;3.75;;;1.10;;
5585;SDS011;2815;54.094;12.112;2023-06-04T07:02:58;2.65;;;1.00;;
5585;SDS011;2815;54.094;12.112;2023-06-04T07:05:27;3.72;;;1.23;;
5585;SDS011;2815;54.094;12.112;2023-06-04T07:07:56;1.67;;;0.73;;
5585;SDS011;2815;54.094;12.112;2023-06-04T07:10:25;3.75;;;1.10;;
5585;SDS011;2815;54.094;12.112;2023-06-04T07:12:53;4.18;;;1.20;;
5585;SDS011;2815;54.094;12.112;2023-06-04T07:15:21;2.15;;;1.13;;
5585;SDS011;2815;54.094;12.112;2023-06-04T07:17:49;4.35;;;0.93;;
5585;SDS011;2815;54.094;12.112;2023-06-04T07:20:17;2.03;;;0.90;;
5585;SDS011;2815;54.094;12.112;2023-06-04T07:22:45;2.70;;;0.90;;
5585;SDS011;2815;54.094;12.112;2023-06-04T07:25:15;2.65;;;1.00;;
5585;SDS011;2815;54.094;12.112;2023-06-04T07:27:43;3.03;;;1.23;;
5585;SDS011;2815;54.094;12.112;2023-06-04T07:30:11;4.88;;;1.02;;
5585;SDS011;2815;54.094;12.112;2023-06-04T07:32:39;3.00;;;1.40;;
5585;SDS011;2815;54.094;12.112;2023-06-04T07:35:08;2.42;;;1.08;;
5585;SDS011;2815;54.094;12.112;2023-06-04T07:37:36;2.25;;;1.13;;
5585;SDS011;2815;54.094;12.112;2023-06-04T07:40:04;2.08;;;1.20;;
5585;SDS011;2815;54.094;12.112;2023-06-04T07:42:34;4.38;;;1.13;;
5585;SDS011;2815;54.094;12.112;2023-06-04T07:45:02;2.13;;;1.20;;
5585;SDS011;2815;54.094;12.112;2023-06-04T07:47:31;6.50;;;1.08;;
5585;SDS011;2815;54.094;12.112;2023-06-04T07:49:59;4.05;;;1.15;;
5585;SDS011;2815;54.094;12.112;2023-06-04T07:52:29;3.22;;;1.13;;
5585;SDS011;2815;54.094;12.112;2023-06-04T07:54:57;2.58;;;1.13;;
5585;SDS011;2815;54.094;12.112;2023-06-04T07:57:25;3.05;;;1.10;;
5585;SDS011;2815;54.094;12.112;2023-06-04T07:59:55;1.83;;;1.15;;
5585;SDS011;2815;54.094;12.112;2023-06-04T08:02:23;3.25;;;1.40;;
5585;SDS011;2815;54.094;12.112;2023-06-04T08:04:51;4.53;;;1.30;;
5585;SDS011;2815;54.094;12.112;2023-06-04T08:07:19;3.83;;;1.15;;
5585;SDS011;2815;54.094;12.112;2023-06-04T08:09:47;4.95;;;1.42;;
5585;SDS011;2815;54.094;12.112;2023-06-04T08:12:15;2.90;;;0.93;;
5585;SDS011;2815;54.094;12.112;2023-06-04T08:14:43;4.53;;;1.40;;
5585;SDS011;2815;54.094;12.112;2023-06-04T08:17:13;2.90;;;0.93;;
5585;SDS011;2815;54.094;12.112;2023-06-04T08:19:41;5.53;;;1.27;;
5585;SDS011;2815;54.094;12.112;2023-06-04T08:22:09;3.47;;;1.20;;
5585;SDS011;2815;54.094;12.112;2023-06-04T08:24:38;4.47;;;1.00;;
5585;SDS011;2815;54.094;12.112;2023-06-04T08:27:05;2.60;;;1.10;;
5585;SDS011;2815;54.094;12.112;2023-06-04T08:29:34;3.58;;;1.20;;
5585;SDS011;2815;54.094;12.112;2023-06-04T08:32:03;2.65;;;1.20;;
5585;SDS011;2815;54.094;12.112;2023-06-04T08:34:33;6.90;;;1.23;;
5585;SDS011;2815;54.094;12.112;2023-06-04T08:37:01;6.32;;;1.33;;
5585;SDS011;2815;54.094;12.112;2023-06-04T08:39:29;4.32;;;1.52;;
5585;SDS011;2815;54.094;12.112;2023-06-04T08:41:59;5.65;;;1.50;;
5585;SDS011;2815;54.094;12.112;2023-06-04T08:44:29;4.47;;;1.25;;
5585;SDS011;2815;54.094;12.112;2023-06-04T08:47:01;3.80;;;1.40;;
5585;SDS011;2815;54.094;12.112;2023-06-04T08:49:30;5.93;;;1.30;;
5585;SDS011;2815;54.094;12.112;2023-06-04T08:52:03;5.85;;;1.77;;
5585;SDS011;2815;54.094;12.112;2023-06-04T08:54:32;4.38;;;1.50;;
5585;SDS011;2815;54.094;12.112;2023-06-04T08:57:01;8.50;;;1.45;;
5585;SDS011;2815;54.094;12.112;2023-06-04T08:59:29;7.45;;;1.40;;
5585;SDS011;2815;54.094;12.112;2023-06-04T09:01:57;5.65;;;1.80;;
5585;SDS011;2815;54.094;12.112;2023-06-04T09:04:26;9.82;;;1.65;;
5585;SDS011;2815;54.094;12.112;2023-06-04T09:06:59;5.40;;;1.27;;
5585;SDS011;2815;54.094;12.112;2023-06-04T09:09:28;4.55;;;1.48;;
5585;SDS011;2815;54.094;12.112;2023-06-04T09:11:57;6.93;;;1.80;;
5585;SDS011;2815;54.094;12.112;2023-06-04T09:14:25;6.60;;;1.65;;
5585;SDS011;2815;54.094;12.112;2023-06-04T09:16:56;6.57;;;1.80;;
5585;SDS011;2815;54.094;12.112;2023-06-04T09:19:25;6.65;;;1.50;;
5585;SDS011;2815;54.094;12.112;2023-06-04T09:21:53;9.07;;;1.95;;
5585;SDS011;2815;54.094;12.112;2023-06-04T09:24:24;6.97;;;1.83;;
5585;SDS011;2815;54.094;12.112;2023-06-04T09:26:52;6.05;;;1.63;;
5585;SDS011;2815;54.094;12.112;2023-06-04T09:29:20;5.93;;;1.98;;
5585;SDS011;2815;54.094;12.112;2023-06-04T09:31:56;8.57;;;1.88;;
5585;SDS011;2815;54.094;12.112;2023-06-04T09:34:27;5.82;;;1.75;;
5585;SDS011;2815;54.094;12.112;2023-06-04T09:36:57;8.35;;;1.63;;
5585;SDS011;2815;54.094;12.112;2023-06-04T09:39:27;5.22;;;1.95;;
5585;SDS011;2815;54.094;12.112;2023-06-04T09:41:58;6.85;;;1.55;;
5585;SDS011;2815;54.094;12.112;2023-06-04T09:46:56;6.57;;;1.40;;
5585;SDS011;2815;54.094;12.112;2023-06-04T09:49:25;8.65;;;2.00;;
5585;SDS011;2815;54.094;12.112;2023-06-04T09:51:53;4.68;;;1.67;;
5585;SDS011;2815;54.094;12.112;2023-06-04T09:54:21;5.43;;;1.38;;
5585;SDS011;2815;54.094;12.112;2023-06-04T09:56:52;5.72;;;1.65;;
5585;SDS011;2815;54.094;12.112;2023-06-04T09:59:21;4.32;;;1.60;;
5585;SDS011;2815;54.094;12.112;2023-06-04T10:01:49;6.72;;;1.65;;
5585;SDS011;2815;54.094;12.112;2023-06-04T10:04:19;6.30;;;1.65;;
5585;SDS011;2815;54.094;12.112;2023-06-04T10:06:50;7.18;;;1.60;;
5585;SDS011;2815;54.094;12.112;2023-06-04T10:09:18;6.93;;;1.70;;
5585;SDS011;2815;54.094;12.112;2023-06-04T10:11:49;7.90;;;1.70;;
5585;SDS011;2815;54.094;12.112;2023-06-04T10:14:25;6.88;;;1.48;;
5585;SDS011;2815;54.094;12.112;2023-06-04T10:16:57;4.93;;;1.33;;
5585;SDS011;2815;54.094;12.112;2023-06-04T10:19:26;7.40;;;1.80;;
5585;SDS011;2815;54.094;12.112;2023-06-04T10:21:55;4.22;;;1.33;;
5585;SDS011;2815;54.094;12.112;2023-06-04T10:24:23;4.47;;;1.52;;
5585;SDS011;2815;54.094;12.112;2023-06-04T10:26:55;2.95;;;1.17;;
5585;SDS011;2815;54.094;12.112;2023-06-04T10:29:25;6.43;;;1.30;;
5585;SDS011;2815;54.094;12.112;2023-06-04T10:31:53;6.40;;;1.40;;
5585;SDS011;2815;54.094;12.112;2023-06-04T10:34:22;4.20;;;1.35;;
5585;SDS011;2815;54.094;12.112;2023-06-04T10:36:50;5.68;;;1.33;;
5585;SDS011;2815;54.094;12.112;2023-06-04T10:39:24;11.20;;;1.50;;
5585;SDS011;2815;54.094;12.112;2023-06-04T10:42:01;3.35;;;1.42;;
5585;SDS011;2815;54.094;12.112;2023-06-04T10:44:29;5.80;;;1.50;;
5585;SDS011;2815;54.094;12.112;2023-06-04T10:46:58;4.10;;;1.15;;
5585;SDS011;2815;54.094;12.112;2023-06-04T10:49:26;3.45;;;1.20;;
5585;SDS011;2815;54.094;12.112;2023-06-04T10:51:55;7.88;;;1.15;;
5585;SDS011;2815;54.094;12.112;2023-06-04T10:54:24;3.10;;;1.02;;
5585;SDS011;2815;54.094;12.112;2023-06-04T10:56:52;3.63;;;1.20;;
5585;SDS011;2815;54.094;12.112;2023-06-04T10:59:22;7.88;;;1.75;;
5585;SDS011;2815;54.094;12.112;2023-06-04T11:01:51;7.05;;;1.38;;
5585;SDS011;2815;54.094;12.112;2023-06-04T11:04:19;5.65;;;1.27;;
5585;SDS011;2815;54.094;12.112;2023-06-04T11:06:48;4.90;;;1.20;;
5585;SDS011;2815;54.094;12.112;2023-06-04T11:09:28;5.72;;;1.50;;
5585;SDS011;2815;54.094;12.112;2023-06-04T11:11:59;4.50;;;1.40;;
5585;SDS011;2815;54.094;12.112;2023-06-04T11:14:29;2.72;;;1.33;;
5585;SDS011;2815;54.094;12.112;2023-06-04T11:16:57;7.97;;;1.50;;
5585;SDS011;2815;54.094;12.112;2023-06-04T11:19:36;5.57;;;1.50;;
5585;SDS011;2815;54.094;12.112;2023-06-04T11:22:05;3.55;;;1.42;;
5585;SDS011;2815;54.094;12.112;2023-06-04T11:24:33;5.93;;;1.38;;
5585;SDS011;2815;54.094;12.112;2023-06-04T11:27:01;6.00;;;1.45;;
5585;SDS011;2815;54.094;12.112;2023-06-04T11:29:50;2.88;;;1.30;;
5585;SDS011;2815;54.094;12.112;2023-06-04T11:32:21;6.18;;;1.55;;
5585;SDS011;2815;54.094;12.112;2023-06-04T11:34:50;3.63;;;1.40;;
5585;SDS011;2815;54.094;12.112;2023-06-04T11:37:18;2.40;;;1.23;;
5585;SDS011;2815;54.094;12.112;2023-06-04T11:39:45;4.50;;;1.25;;
5585;SDS011;2815;54.094;12.112;2023-06-04T11:42:13;3.88;;;1.33;;
5585;SDS011;2815;54.094;12.112;2023-06-04T11:44:42;6.00;;;1.30;;
5585;SDS011;2815;54.094;12.112;2023-06-04T11:49:44;9.32;;;1.13;;
5585;SDS011;2815;54.094;12.112;2023-06-04T11:52:12;5.50;;;1.52;;
5585;SDS011;2815;54.094;12.112;2023-06-04T11:54:40;6.38;;;1.65;;
5585;SDS011;2815;54.094;12.112;2023-06-04T11:57:08;3.63;;;1.35;;
5585;SDS011;2815;54.094;12.112;2023-06-04T11:59:36;5.72;;;1.60;;
5585;SDS011;2815;54.094;12.112;2023-06-04T12:02:04;6.32;;;1.60;;
5585;SDS011;2815;54.094;12.112;2023-06-04T12:04:35;5.75;;;1.40;;
5585;SDS011;2815;54.094;12.112;2023-06-04T12:07:04;4.57;;;1.65;;
5585;SDS011;2815;54.094;12.112;2023-06-04T12:09:33;7.55;;;1.55;;
5585;SDS011;2815;54.094;12.112;2023-06-04T12:12:03;3.25;;;1.50;;
5585;SDS011;2815;54.094;12.112;2023-06-04T12:14:31;5.97;;;1.38;;
5585;SDS011;2815;54.094;12.112;2023-06-04T12:17:00;7.32;;;1.40;;
5585;SDS011;2815;54.094;12.112;2023-06-04T12:19:28;2.65;;;1.38;;
5585;SDS011;2815;54.094;12.112;2023-06-04T12:22:01;4.05;;;1.30;;
5585;SDS011;2815;54.094;12.112;2023-06-04T12:24:30;5.97;;;1.23;;
5585;SDS011;2815;54.094;12.112;2023-06-04T12:27:02;6.22;;;1.40;;
5585;SDS011;2815;54.094;12.112;2023-06-04T12:29:31;3.67;;;1.20;;
5585;SDS011;2815;54.094;12.112;2023-06-04T12:32:02;9.60;;;1.50;;
5585;SDS011;2815;54.094;12.112;2023-06-04T12:34:31;6.35;;;1.90;;
5585;SDS011;2815;54.094;12.112;2023-06-04T12:37:01;3.92;;;1.38;;
5585;SDS011;2815;54.094;12.112;2023-06-04T12:39:29;4.47;;;1.30;;
5585;SDS011;2815;54.094;12.112;2023-06-04T12:41:57;6.72;;;1.60;;
5585;SDS011;2815;54.094;12.112;2023-06-04T12:44:25;6.43;;;1.50;;
5585;SDS011;2815;54.094;12.112;2023-06-04T12:46:53;5.82;;;1.40;;
5585;SDS011;2815;54.094;12.112;2023-06-04T12:49:22;8.85;;;1.52;;
5585;SDS011;2815;54.094;12.112;2023-06-04T12:51:50;3.47;;;1.20;;
5585;SDS011;2815;54.094;12.112;2023-06-04T12:54:19;4.40;;;1.40;;
5585;SDS011;2815;54.094;12.112;2023-06-04T12:56:48;4.88;;;1.67;;
5585;SDS011;2815;54.094;12.112;2023-06-04T12:59:16;3.33;;;1.30;;
5585;SDS011;2815;54.094;12.112;2023-06-04T13:01:45;5.25;;;1.55;;
5585;SDS011;2815;54.094;12.112;2023-06-04T13:04:13;5.47;;;1.60;;
5585;SDS011;2815;54.094;12.112;2023-06-04T13:06:41;4.50;;;1.30;;
5585;SDS011;2815;54.094;12.112;2023-06-04T13:09:09;5.85;;;1.30;;
5585;SDS011;2815;54.094;12.112;2023-06-04T13:11:38;2.38;;;1.15;;
5585;SDS011;2815;54.094;12.112;2023-06-04T13:14:07;4.82;;;1.30;;
5585;SDS011;2815;54.094;12.112;2023-06-04T13:16:37;6.90;;;1.55;;
5585;SDS011;2815;54.094;12.112;2023-06-04T13:19:05;5.00;;;1.30;;
5585;SDS011;2815;54.094;12.112;2023-06-04T13:21:34;7.45;;;1.50;;
5585;SDS011;2815;54.094;12.112;2023-06-04T13:24:03;5.07;;;1.60;;
5585;SDS011;2815;54.094;12.112;2023-06-04T13:26:32;5.43;;;1.50;;
5585;SDS011;2815;54.094;12.112;2023-06-04T13:29:01;4.95;;;1.65;;
5585;SDS011;2815;54.094;12.112;2023-06-04T13:31:30;8.73;;;1.63;;
5585;SDS011;2815;54.094;12.112;2023-06-04T13:33:58;6.30;;;1.38;;
5585;SDS011;2815;54.094;12.112;2023-06-04T13:36:40;4.75;;;1.10;;
5585;SDS011;2815;54.094;12.112;2023-06-04T13:39:08;8.00;;;1.30;;
5585;SDS011;2815;54.094;12.112;2023-06-04T13:41:36;6.93;;;1.58;;
5585;SDS011;2815;54.094;12.112;2023-06-04T13:44:06;4.38;;;1.40;;
5585;SDS011;2815;54.094;12.112;2023-06-04T13:46:34;4.22;;;1.35;;
5585;SDS011;2815;54.094;12.112;2023-06-04T13:49:02;5.50;;;1.42;;
5585;SDS011;2815;54.094;12.112;2023-06-04T13:51:32;5.03;;;1.65;;
5585;SDS011;2815;54.094;12.112;2023-06-04T13:54:00;5.95;;;1.40;;
5585;SDS011;2815;54.094;12.112;2023-06-04T13:56:27;3.22;;;1.20;;
5585;SDS011;2815;54.094;12.112;2023-06-04T13:58:55;3.83;;;1.30;;
5585;SDS011;2815;54.094;12.112;2023-06-04T14:01:25;4.95;;;1.63;;
5585;SDS011;2815;54.094;12.112;2023-06-04T14:03:53;3.05;;;1.23;;
5585;SDS011;2815;54.094;12.112;2023-06-04T14:06:21;6.57;;;1.38;;
5585;SDS011;2815;54.094;12.112;2023-06-04T14:08:49;5.57;;;1.33;;
5585;SDS011;2815;54.094;12.112;2023-06-04T14:11:17;6.50;;;1.35;;
5585;SDS011;2815;54.094;12.112;2023-06-04T14:13:45;3.88;;;1.25;;
5585;SDS011;2815;54.094;12.112;2023-06-04T14:16:13;5.10;;;1.33;;
5585;SDS011;2815;54.094;12.112;2023-06-04T14:18:43;4.80;;;1.40;;
5585;SDS011;2815;54.094;12.112;2023-06-04T14:21:11;5.50;;;1.65;;
5585;SDS011;2815;54.094;12.112;2023-06-04T14:23:39;4.57;;;1.20;;
5585;SDS011;2815;54.094;12.112;2023-06-04T14:26:06;6.60;;;2.08;;
5585;SDS011;2815;54.094;12.112;2023-06-04T14:28:35;6.13;;;1.60;;
5585;SDS011;2815;54.094;12.112;2023-06-04T14:31:03;4.25;;;1.50;;
5585;SDS011;2815;54.094;12.112;2023-06-04T14:33:31;5.75;;;1.35;;
5585;SDS011;2815;54.094;12.112;2023-06-04T14:36:00;5.15;;;1.38;;
5585;SDS011;2815;54.094;12.112;2023-06-04T14:38:28;6.47;;;1.63;;
5585;SDS011;2815;54.094;12.112;2023-06-04T14:40:58;4.35;;;1.42;;
5585;SDS011;2815;54.094;12.112;2023-06-04T14:43:26;3.20;;;1.35;;
5585;SDS011;2815;54.094;12.112;2023-06-04T14:45:55;5.35;;;1.88;;
5585;SDS011;2815;54.094;12.112;2023-06-04T14:48:23;5.30;;;1.30;;
5585;SDS011;2815;54.094;12.112;2023-06-04T14:50:51;5.28;;;1.70;;
5585;SDS011;2815;54.094;12.112;2023-06-04T14:53:21;6.82;;;1.35;;
5585;SDS011;2815;54.094;12.112;2023-06-04T14:55:50;4.90;;;1.60;;
5585;SDS011;2815;54.094;12.112;2023-06-04T14:58:19;5.47;;;1.50;;
5585;SDS011;2815;54.094;12.112;2023-06-04T15:00:47;5.32;;;1.80;;
5585;SDS011;2815;54.094;12.112;2023-06-04T15:03:15;5.85;;;1.70;;
5585;SDS011;2815;54.094;12.112;2023-06-04T15:05:43;9.52;;;1.63;;
5585;SDS011;2815;54.094;12.112;2023-06-04T15:08:11;3.70;;;1.45;;
5585;SDS011;2815;54.094;12.112;2023-06-04T15:10:40;4.63;;;1.50;;
5585;SDS011;2815;54.094;12.112;2023-06-04T15:13:09;5.18;;;1.80;;
5585;SDS011;2815;54.094;12.112;2023-06-04T15:15:37;5.55;;;1.25;;
5585;SDS011;2815;54.094;12.112;2023-06-04T15:18:05;13.27;;;1.77;;
5585;SDS011;2815;54.094;12.112;2023-06-04T15:20:33;6.65;;;1.90;;
5585;SDS011;2815;54.094;12.112;2023-06-04T15:23:01;3.30;;;1.48;;